FHY641 LTBS-EGHH
Flight info
| Callsign | FHY641 |
|---|---|
| Flight time | N/A |
| Altitude | 28000 |
| Route | KEKIK N127 UFQUM/N0448F360 UN127 RIKSO DCT STINO DCT PEREN DCT DISOR DCT LONTA UL608 DOLEV DCT TIMID DCT EVTON DCT MONID DCT SABAD DCT RIFEN DCT SAFFA/N0446F380 DCT ELMUR DCT RIPUS DCT DITON DCT HOC DCT LUL DCT RLP DCT ROTSI DCT KOTUN DCT NIDUV DCT SOSUN DCT SUBIP UM8 ELDAX |
| Aircraft | A320/M-SDE3FGHIRWY/LB1 |
Departure
| Time | N/A |
|---|---|
| Airport | Dalaman International Airport (LTBS) |
Arrival
| Time | 2026-05-06 22:34 |
|---|---|
| Airport | Bournemouth Airport (EGHH) |
| Time | Latitude | Longitude | Altitude | Speed | Heading |
|---|---|---|---|---|---|
| 2026-05-06 20:54 | 46.31381 | 11.97883 | 32922 ft | 396 kts | 283° |
| 2026-05-06 20:55 | 46.33451 | 11.90441 | 32929 ft | 396 kts | 283° |
| 2026-05-06 20:55 | 46.35477 | 11.83097 | 32924 ft | 395 kts | 283° |
| 2026-05-06 20:56 | 46.37517 | 11.75693 | 32929 ft | 395 kts | 283° |
| 2026-05-06 20:56 | 46.39553 | 11.68292 | 32938 ft | 396 kts | 283° |
| 2026-05-06 20:57 | 46.41250 | 11.62085 | 32940 ft | 395 kts | 283° |
| 2026-05-06 20:57 | 46.43267 | 11.54714 | 32934 ft | 395 kts | 283° |
| 2026-05-06 20:58 | 46.45303 | 11.47251 | 32943 ft | 395 kts | 283° |
| 2026-05-06 20:58 | 46.47302 | 11.39880 | 32937 ft | 396 kts | 283° |
| 2026-05-06 20:59 | 46.49312 | 11.32445 | 32939 ft | 396 kts | 283° |
| 2026-05-06 20:59 | 46.51325 | 11.25000 | 32947 ft | 396 kts | 283° |
| 2026-05-06 21:00 | 46.53302 | 11.17662 | 32951 ft | 396 kts | 283° |
| 2026-05-06 21:00 | 46.55299 | 11.10207 | 32948 ft | 396 kts | 283° |
| 2026-05-06 21:01 | 46.57299 | 11.02738 | 32951 ft | 397 kts | 283° |
| 2026-05-06 21:01 | 46.59296 | 10.95252 | 32948 ft | 397 kts | 283° |
| 2026-05-06 21:02 | 46.61284 | 10.87755 | 32952 ft | 397 kts | 283° |
| 2026-05-06 21:02 | 46.63271 | 10.80242 | 32963 ft | 398 kts | 283° |
| 2026-05-06 21:03 | 46.65257 | 10.72710 | 32960 ft | 398 kts | 283° |
| 2026-05-06 21:03 | 46.67235 | 10.65194 | 32957 ft | 398 kts | 283° |
| 2026-05-06 21:04 | 46.69211 | 10.57668 | 32948 ft | 398 kts | 283° |
| 2026-05-06 21:04 | 46.71180 | 10.50129 | 32936 ft | 397 kts | 283° |
| 2026-05-06 21:05 | 46.73135 | 10.42619 | 32926 ft | 397 kts | 283° |
| 2026-05-06 21:05 | 46.75182 | 10.35002 | 33142 ft | 409 kts | 285° |
| 2026-05-06 21:05 | 46.76295 | 10.31153 | 33312 ft | 415 kts | 285° |
| 2026-05-06 21:06 | 46.77440 | 10.27276 | 33588 ft | 417 kts | 286° |
| 2026-05-06 21:06 | 46.78588 | 10.23404 | 33886 ft | 417 kts | 286° |
| 2026-05-06 21:06 | 46.79735 | 10.19508 | 34163 ft | 418 kts | 286° |
| 2026-05-06 21:06 | 46.80872 | 10.15591 | 34411 ft | 419 kts | 286° |
| 2026-05-06 21:07 | 46.81995 | 10.11667 | 34642 ft | 419 kts | 286° |
| 2026-05-06 21:07 | 46.83112 | 10.07725 | 34870 ft | 420 kts | 286° |
| 2026-05-06 21:07 | 46.84229 | 10.03774 | 35106 ft | 421 kts | 286° |
| 2026-05-06 21:07 | 46.85349 | 9.99821 | 35293 ft | 422 kts | 287° |
| 2026-05-06 21:08 | 46.86471 | 9.95870 | 35518 ft | 423 kts | 287° |
| 2026-05-06 21:08 | 46.87599 | 9.91892 | 35763 ft | 423 kts | 287° |
| 2026-05-06 21:08 | 46.88729 | 9.87904 | 35997 ft | 424 kts | 287° |
| 2026-05-06 21:08 | 46.89857 | 9.83923 | 36212 ft | 425 kts | 287° |
| 2026-05-06 21:09 | 46.90996 | 9.79910 | 36432 ft | 426 kts | 288° |
| 2026-05-06 21:09 | 46.92130 | 9.75903 | 36621 ft | 427 kts | 288° |
| 2026-05-06 21:09 | 46.93261 | 9.71884 | 36833 ft | 427 kts | 288° |
| 2026-05-06 21:09 | 46.94389 | 9.67862 | 36939 ft | 429 kts | 288° |
| 2026-05-06 21:10 | 46.95519 | 9.63825 | 36943 ft | 429 kts | 288° |
| 2026-05-06 21:10 | 46.97780 | 9.55734 | 36941 ft | 429 kts | 288° |
| 2026-05-06 21:11 | 47.00047 | 9.47624 | 36941 ft | 430 kts | 288° |
| 2026-05-06 21:11 | 47.02302 | 9.39508 | 36946 ft | 430 kts | 288° |
| 2026-05-06 21:12 | 47.04546 | 9.31372 | 36945 ft | 430 kts | 288° |
| 2026-05-06 21:12 | 47.06795 | 9.23238 | 36950 ft | 431 kts | 288° |
| 2026-05-06 21:13 | 47.09039 | 9.15092 | 36961 ft | 431 kts | 288° |
| 2026-05-06 21:13 | 47.11285 | 9.06922 | 36949 ft | 431 kts | 288° |
| 2026-05-06 21:14 | 47.13520 | 8.98749 | 36953 ft | 431 kts | 288° |
| 2026-05-06 21:14 | 47.15737 | 8.90576 | 36956 ft | 431 kts | 288° |
| 2026-05-06 21:15 | 47.17884 | 8.82338 | 36971 ft | 430 kts | 287° |
| 2026-05-06 21:15 | 47.19954 | 8.74080 | 36965 ft | 430 kts | 286° |
| 2026-05-06 21:16 | 47.22029 | 8.65825 | 36969 ft | 431 kts | 287° |
| 2026-05-06 21:16 | 47.24125 | 8.57564 | 36970 ft | 431 kts | 287° |
| 2026-05-06 21:17 | 47.26195 | 8.49352 | 36973 ft | 430 kts | 287° |
| 2026-05-06 21:17 | 47.28290 | 8.41032 | 36969 ft | 430 kts | 287° |
| 2026-05-06 21:18 | 47.30364 | 8.32762 | 36988 ft | 430 kts | 287° |
| 2026-05-06 21:18 | 47.32439 | 8.24485 | 36985 ft | 430 kts | 287° |
| 2026-05-06 21:19 | 47.34492 | 8.16247 | 36979 ft | 431 kts | 287° |
| 2026-05-06 21:19 | 47.36538 | 8.07950 | 36983 ft | 431 kts | 287° |
| 2026-05-06 21:20 | 47.38586 | 7.99637 | 36977 ft | 431 kts | 287° |
| 2026-05-06 21:20 | 47.40637 | 7.91303 | 36976 ft | 431 kts | 287° |
| 2026-05-06 21:21 | 47.42670 | 7.82976 | 36968 ft | 431 kts | 287° |
| 2026-05-06 21:21 | 47.44692 | 7.74632 | 36961 ft | 432 kts | 287° |
| 2026-05-06 21:22 | 47.46690 | 7.66258 | 36961 ft | 430 kts | 283° |
| 2026-05-06 21:22 | 47.48148 | 7.57701 | 36954 ft | 430 kts | 281° |
| 2026-05-06 21:23 | 47.49586 | 7.49120 | 36949 ft | 430 kts | 281° |
| 2026-05-06 21:23 | 47.51018 | 7.40522 | 36953 ft | 430 kts | 281° |
| 2026-05-06 21:24 | 47.52440 | 7.31922 | 36957 ft | 431 kts | 281° |
| 2026-05-06 21:24 | 47.53854 | 7.23315 | 36959 ft | 431 kts | 281° |
| 2026-05-06 21:25 | 47.55267 | 7.14683 | 36962 ft | 431 kts | 281° |
| 2026-05-06 21:25 | 47.56669 | 7.06050 | 36957 ft | 431 kts | 281° |
| 2026-05-06 21:26 | 47.58059 | 6.97477 | 36957 ft | 431 kts | 281° |
| 2026-05-06 21:26 | 47.59460 | 6.88840 | 36955 ft | 431 kts | 281° |
| 2026-05-06 21:27 | 47.60860 | 6.80150 | 36956 ft | 431 kts | 281° |
| 2026-05-06 21:27 | 47.62243 | 6.71500 | 36957 ft | 431 kts | 281° |
| 2026-05-06 21:28 | 47.63601 | 6.62913 | 36958 ft | 431 kts | 281° |
| 2026-05-06 21:28 | 47.64966 | 6.54256 | 36957 ft | 431 kts | 281° |
| 2026-05-06 21:29 | 47.66328 | 6.45596 | 36961 ft | 430 kts | 281° |
| 2026-05-06 21:29 | 47.67684 | 6.36938 | 36956 ft | 430 kts | 281° |
| 2026-05-06 21:30 | 47.69050 | 6.28276 | 36954 ft | 431 kts | 283° |
| 2026-05-06 21:30 | 47.70755 | 6.19727 | 36954 ft | 434 kts | 286° |
| 2026-05-06 21:31 | 47.72696 | 6.11121 | 36955 ft | 444 kts | 287° |
| 2026-05-06 21:31 | 47.74649 | 6.02322 | 36947 ft | 452 kts | 286° |
| 2026-05-06 21:32 | 47.76538 | 5.93349 | 36942 ft | 457 kts | 285° |
| 2026-05-06 21:32 | 47.79364 | 5.79691 | 36949 ft | 463 kts | 285° |
| 2026-05-06 21:33 | 47.81244 | 5.70662 | 36948 ft | 444 kts | 285° |
| 2026-05-06 21:33 | 47.83029 | 5.62067 | 36946 ft | 434 kts | 285° |
| 2026-05-06 21:34 | 47.84509 | 5.54879 | 36953 ft | 433 kts | 285° |
| 2026-05-06 21:34 | 47.86270 | 5.46311 | 36954 ft | 433 kts | 285° |
| 2026-05-06 21:35 | 47.88025 | 5.37736 | 36951 ft | 433 kts | 285° |
| 2026-05-06 21:35 | 47.89803 | 5.29180 | 36950 ft | 433 kts | 289° |
| 2026-05-06 21:36 | 47.92794 | 5.21384 | 36951 ft | 436 kts | 309° |
| 2026-05-06 21:36 | 47.96876 | 5.14674 | 36953 ft | 437 kts | 311° |
| 2026-05-06 21:37 | 48.00966 | 5.07937 | 36960 ft | 437 kts | 310° |
| 2026-05-06 21:37 | 48.05043 | 5.01190 | 36963 ft | 438 kts | 310° |
| 2026-05-06 21:38 | 48.09125 | 4.94415 | 36971 ft | 438 kts | 310° |
| 2026-05-06 21:38 | 48.13207 | 4.87618 | 36983 ft | 438 kts | 310° |
| 2026-05-06 21:39 | 48.17282 | 4.80828 | 36977 ft | 439 kts | 310° |
| 2026-05-06 21:39 | 48.21362 | 4.74021 | 36985 ft | 438 kts | 310° |
| 2026-05-06 21:40 | 48.25430 | 4.67221 | 36979 ft | 438 kts | 310° |
| 2026-05-06 21:40 | 48.29488 | 4.60399 | 36977 ft | 438 kts | 310° |
| 2026-05-06 21:41 | 48.33534 | 4.53563 | 36976 ft | 438 kts | 310° |
| 2026-05-06 21:41 | 48.37577 | 4.46724 | 36980 ft | 437 kts | 310° |
| 2026-05-06 21:42 | 48.41627 | 4.39882 | 36981 ft | 437 kts | 310° |
| 2026-05-06 21:42 | 48.45667 | 4.33034 | 36984 ft | 437 kts | 310° |
| 2026-05-06 21:43 | 48.49700 | 4.26173 | 36987 ft | 437 kts | 310° |
| 2026-05-06 21:43 | 48.53724 | 4.19308 | 36986 ft | 437 kts | 310° |
| 2026-05-06 21:44 | 48.57739 | 4.12428 | 36987 ft | 437 kts | 310° |
| 2026-05-06 21:44 | 48.61755 | 4.05534 | 36988 ft | 437 kts | 310° |
| 2026-05-06 21:45 | 48.65772 | 3.98651 | 36986 ft | 436 kts | 310° |
| 2026-05-06 21:45 | 48.69778 | 3.91741 | 36986 ft | 436 kts | 310° |
| 2026-05-06 21:46 | 48.73761 | 3.84821 | 36985 ft | 436 kts | 309° |
| 2026-05-06 21:46 | 48.77678 | 3.77790 | 36989 ft | 436 kts | 309° |
| 2026-05-06 21:47 | 48.81545 | 3.70701 | 36989 ft | 436 kts | 308° |
| 2026-05-06 21:47 | 48.85427 | 3.63608 | 36993 ft | 436 kts | 309° |
| 2026-05-06 21:48 | 48.89324 | 3.56521 | 36994 ft | 436 kts | 309° |
| 2026-05-06 21:48 | 48.93203 | 3.49436 | 36992 ft | 436 kts | 309° |
| 2026-05-06 21:49 | 48.97072 | 3.42342 | 36998 ft | 436 kts | 309° |
| 2026-05-06 21:49 | 49.00939 | 3.35236 | 37000 ft | 436 kts | 309° |
| 2026-05-06 21:50 | 49.04805 | 3.28126 | 36997 ft | 435 kts | 309° |
| 2026-05-06 21:50 | 49.08662 | 3.21002 | 37002 ft | 435 kts | 309° |
| 2026-05-06 21:51 | 49.12516 | 3.13876 | 37003 ft | 435 kts | 309° |
| 2026-05-06 21:51 | 49.16359 | 3.06747 | 37002 ft | 435 kts | 308° |
| 2026-05-06 21:52 | 49.20200 | 2.99590 | 37001 ft | 435 kts | 308° |
| 2026-05-06 21:52 | 49.24030 | 2.92433 | 37007 ft | 435 kts | 308° |
| 2026-05-06 21:53 | 49.27862 | 2.85257 | 37010 ft | 435 kts | 308° |
| 2026-05-06 21:53 | 49.31696 | 2.78079 | 37010 ft | 435 kts | 308° |
| 2026-05-06 21:54 | 49.35518 | 2.70898 | 37014 ft | 435 kts | 309° |
| 2026-05-06 21:54 | 49.39371 | 2.63748 | 37014 ft | 434 kts | 309° |
| 2026-05-06 21:55 | 49.43232 | 2.56612 | 37017 ft | 434 kts | 309° |
| 2026-05-06 21:55 | 49.47073 | 2.49464 | 37019 ft | 433 kts | 309° |
| 2026-05-06 21:56 | 49.50904 | 2.42307 | 37018 ft | 433 kts | 309° |
| 2026-05-06 21:56 | 49.54723 | 2.35152 | 37018 ft | 432 kts | 309° |
| 2026-05-06 21:57 | 49.58534 | 2.28001 | 37017 ft | 432 kts | 309° |
| 2026-05-06 21:57 | 49.62339 | 2.20844 | 37017 ft | 431 kts | 309° |
| 2026-05-06 21:58 | 49.66141 | 2.13666 | 37014 ft | 431 kts | 309° |
| 2026-05-06 21:58 | 49.69929 | 2.06496 | 37018 ft | 430 kts | 309° |
| 2026-05-06 21:59 | 49.73704 | 1.99336 | 37017 ft | 430 kts | 308° |
| 2026-05-06 21:59 | 49.77480 | 1.92153 | 37018 ft | 430 kts | 308° |
| 2026-05-06 22:00 | 49.81238 | 1.84967 | 37015 ft | 430 kts | 308° |
| 2026-05-06 22:00 | 49.84993 | 1.77757 | 37014 ft | 429 kts | 308° |
| 2026-05-06 22:01 | 49.88755 | 1.70553 | 37016 ft | 429 kts | 308° |
| 2026-05-06 22:01 | 49.92418 | 1.63522 | 37011 ft | 431 kts | 308° |
| 2026-05-06 22:02 | 49.96206 | 1.56128 | 37018 ft | 443 kts | 308° |
| 2026-05-06 22:02 | 50.00345 | 1.49237 | 37011 ft | 432 kts | 319° |
| 2026-05-06 22:03 | 50.04887 | 1.43130 | 37011 ft | 430 kts | 318° |
| 2026-05-06 22:03 | 50.09390 | 1.36984 | 36964 ft | 431 kts | 318° |
| 2026-05-06 22:04 | 50.11644 | 1.33898 | 36700 ft | 430 kts | 318° |
| 2026-05-06 22:04 | 50.13888 | 1.30831 | 36395 ft | 427 kts | 318° |
| 2026-05-06 22:04 | 50.16113 | 1.27790 | 35896 ft | 423 kts | 318° |
| 2026-05-06 22:04 | 50.18313 | 1.24779 | 35392 ft | 420 kts | 318° |
| 2026-05-06 22:05 | 50.20505 | 1.21777 | 34894 ft | 417 kts | 318° |
| 2026-05-06 22:05 | 50.22674 | 1.18803 | 34385 ft | 414 kts | 318° |
| 2026-05-06 22:05 | 50.24830 | 1.15840 | 33863 ft | 412 kts | 318° |
| 2026-05-06 22:05 | 50.26965 | 1.12900 | 33341 ft | 408 kts | 318° |
| 2026-05-06 22:06 | 50.29080 | 1.09982 | 32857 ft | 403 kts | 318° |
| 2026-05-06 22:06 | 50.31177 | 1.07091 | 32367 ft | 399 kts | 318° |
| 2026-05-06 22:06 | 50.33256 | 1.04216 | 31884 ft | 396 kts | 317° |
| 2026-05-06 22:06 | 50.35308 | 1.01374 | 31415 ft | 392 kts | 317° |
| 2026-05-06 22:07 | 50.37345 | 0.98549 | 30955 ft | 389 kts | 317° |
| 2026-05-06 22:07 | 50.39363 | 0.95754 | 30507 ft | 386 kts | 317° |
| 2026-05-06 22:07 | 50.41371 | 0.92970 | 30052 ft | 383 kts | 317° |
| 2026-05-06 22:07 | 50.43211 | 0.89984 | 29579 ft | 379 kts | 307° |
| 2026-05-06 22:08 | 50.44637 | 0.86565 | 29161 ft | 373 kts | 297° |
| 2026-05-06 22:08 | 50.45634 | 0.82828 | 28729 ft | 368 kts | 287° |
| 2026-05-06 22:08 | 50.46352 | 0.78989 | 28325 ft | 364 kts | 286° |
| 2026-05-06 22:08 | 50.47066 | 0.75195 | 27922 ft | 360 kts | 286° |
| 2026-05-06 22:09 | 50.47775 | 0.71445 | 27508 ft | 356 kts | 286° |
| 2026-05-06 22:09 | 50.48476 | 0.67744 | 27105 ft | 352 kts | 286° |
| 2026-05-06 22:09 | 50.49021 | 0.64012 | 26686 ft | 349 kts | 278° |
| 2026-05-06 22:09 | 50.49380 | 0.60254 | 26264 ft | 346 kts | 278° |
| 2026-05-06 22:10 | 50.49733 | 0.56535 | 25856 ft | 343 kts | 278° |
| 2026-05-06 22:10 | 50.50077 | 0.52887 | 25430 ft | 341 kts | 278° |
| 2026-05-06 22:10 | 50.50424 | 0.49212 | 25007 ft | 339 kts | 278° |
| 2026-05-06 22:10 | 50.50769 | 0.45558 | 24560 ft | 338 kts | 278° |
| 2026-05-06 22:11 | 50.51109 | 0.41924 | 24129 ft | 336 kts | 278° |
| 2026-05-06 22:11 | 50.51447 | 0.38289 | 23686 ft | 336 kts | 278° |
| 2026-05-06 22:11 | 50.51783 | 0.34666 | 23192 ft | 335 kts | 278° |
| 2026-05-06 22:11 | 50.52117 | 0.31063 | 22753 ft | 332 kts | 278° |
| 2026-05-06 22:12 | 50.52450 | 0.27482 | 22330 ft | 330 kts | 278° |
| 2026-05-06 22:12 | 50.52672 | 0.25081 | 22045 ft | 328 kts | 278° |
| 2026-05-06 22:12 | 50.52996 | 0.21545 | 21628 ft | 326 kts | 278° |
| 2026-05-06 22:12 | 50.53315 | 0.18030 | 21220 ft | 324 kts | 278° |
| 2026-05-06 22:13 | 50.53634 | 0.14529 | 20812 ft | 323 kts | 278° |
| 2026-05-06 22:13 | 50.53950 | 0.11042 | 20401 ft | 321 kts | 278° |
| 2026-05-06 22:13 | 50.54265 | 0.07574 | 20001 ft | 320 kts | 278° |
| 2026-05-06 22:13 | 50.54580 | 0.04110 | 19604 ft | 319 kts | 278° |
| 2026-05-06 22:14 | 50.54893 | 0.00661 | 19202 ft | 318 kts | 278° |
| 2026-05-06 22:14 | 50.55201 | -0.02743 | 18808 ft | 318 kts | 278° |
| 2026-05-06 22:14 | 50.55509 | -0.06176 | 18409 ft | 317 kts | 278° |
| 2026-05-06 22:14 | 50.55812 | -0.09606 | 17978 ft | 317 kts | 278° |
| 2026-05-06 22:15 | 50.56112 | -0.13024 | 17587 ft | 315 kts | 278° |
| 2026-05-06 22:15 | 50.56411 | -0.16424 | 17197 ft | 313 kts | 278° |
| 2026-05-06 22:15 | 50.56709 | -0.19806 | 16812 ft | 311 kts | 278° |
| 2026-05-06 22:15 | 50.57004 | -0.23166 | 16437 ft | 309 kts | 278° |
| 2026-05-06 22:16 | 50.57295 | -0.26507 | 16064 ft | 308 kts | 278° |
| 2026-05-06 22:16 | 50.57585 | -0.29849 | 15704 ft | 307 kts | 278° |
| 2026-05-06 22:16 | 50.57872 | -0.33169 | 15336 ft | 306 kts | 278° |
| 2026-05-06 22:16 | 50.58160 | -0.36491 | 14971 ft | 305 kts | 278° |
| 2026-05-06 22:17 | 50.58596 | -0.39741 | 14606 ft | 303 kts | 290° |
| 2026-05-06 22:17 | 50.59505 | -0.42717 | 14241 ft | 302 kts | 304° |
| 2026-05-06 22:17 | 50.60832 | -0.45252 | 13876 ft | 300 kts | 315° |
| 2026-05-06 22:17 | 50.62317 | -0.47577 | 13472 ft | 300 kts | 315° |
| 2026-05-06 22:18 | 50.63786 | -0.49887 | 13092 ft | 298 kts | 315° |
| 2026-05-06 22:18 | 50.65250 | -0.52200 | 12723 ft | 296 kts | 315° |
| 2026-05-06 22:18 | 50.66694 | -0.54490 | 12356 ft | 295 kts | 315° |
| 2026-05-06 22:18 | 50.68083 | -0.56849 | 11994 ft | 293 kts | 307° |
| 2026-05-06 22:19 | 50.69113 | -0.59613 | 11619 ft | 292 kts | 293° |
| 2026-05-06 22:19 | 50.69768 | -0.62637 | 11250 ft | 291 kts | 288° |
| 2026-05-06 22:19 | 50.70380 | -0.65678 | 10872 ft | 290 kts | 288° |
| 2026-05-06 22:19 | 50.70991 | -0.68702 | 10497 ft | 289 kts | 288° |
| 2026-05-06 22:20 | 50.71601 | -0.71725 | 10119 ft | 288 kts | 288° |
| 2026-05-06 22:20 | 50.72209 | -0.74725 | 9721 ft | 287 kts | 288° |
| 2026-05-06 22:20 | 50.72813 | -0.77714 | 9313 ft | 285 kts | 289° |
| 2026-05-06 22:20 | 50.73412 | -0.80677 | 9033 ft | 280 kts | 289° |
| 2026-05-06 22:21 | 50.73999 | -0.83590 | 9026 ft | 279 kts | 288° |
| 2026-05-06 22:21 | 50.74585 | -0.86510 | 9020 ft | 279 kts | 288° |
| 2026-05-06 22:21 | 50.75171 | -0.89436 | 9023 ft | 279 kts | 288° |
| 2026-05-06 22:21 | 50.75753 | -0.92349 | 9029 ft | 279 kts | 288° |
| 2026-05-06 22:22 | 50.76338 | -0.95280 | 9025 ft | 279 kts | 288° |
| 2026-05-06 22:22 | 50.76923 | -0.98210 | 9031 ft | 279 kts | 288° |
| 2026-05-06 22:22 | 50.77498 | -1.01140 | 9026 ft | 279 kts | 285° |
| 2026-05-06 22:22 | 50.77755 | -1.04180 | 9024 ft | 280 kts | 271° |
| 2026-05-06 22:23 | 50.77720 | -1.07260 | 9028 ft | 281 kts | 270° |
| 2026-05-06 22:23 | 50.77684 | -1.10339 | 9034 ft | 281 kts | 270° |
| 2026-05-06 22:23 | 50.77647 | -1.13427 | 9031 ft | 281 kts | 270° |
| 2026-05-06 22:23 | 50.77612 | -1.16512 | 9031 ft | 281 kts | 270° |
| 2026-05-06 22:24 | 50.77577 | -1.19598 | 9024 ft | 281 kts | 270° |
| 2026-05-06 22:24 | 50.77763 | -1.22663 | 9028 ft | 279 kts | 287° |
| 2026-05-06 22:24 | 50.78468 | -1.25057 | 9029 ft | 278 kts | 306° |
| 2026-05-06 22:24 | 50.79837 | -1.27198 | 9034 ft | 277 kts | 327° |
| 2026-05-06 22:25 | 50.81591 | -1.28409 | 9032 ft | 277 kts | 345° |
| 2026-05-06 22:25 | 50.83445 | -1.29213 | 9031 ft | 277 kts | 345° |
| 2026-05-06 22:25 | 50.85309 | -1.30018 | 9030 ft | 277 kts | 345° |
| 2026-05-06 22:25 | 50.87169 | -1.30827 | 9058 ft | 277 kts | 344° |
| 2026-05-06 22:26 | 50.89028 | -1.31642 | 9061 ft | 277 kts | 344° |
| 2026-05-06 22:26 | 50.90840 | -1.32441 | 9048 ft | 262 kts | 342° |
| 2026-05-06 22:26 | 50.92362 | -1.33753 | 9057 ft | 239 kts | 315° |
| 2026-05-06 22:26 | 50.93211 | -1.35842 | 9044 ft | 217 kts | 288° |
| 2026-05-06 22:27 | 50.93371 | -1.38168 | 8817 ft | 212 kts | 264° |
| 2026-05-06 22:27 | 50.92877 | -1.40338 | 8291 ft | 210 kts | 238° |
| 2026-05-06 22:27 | 50.92027 | -1.42180 | 7804 ft | 203 kts | 236° |
| 2026-05-06 22:27 | 50.91211 | -1.43948 | 7387 ft | 196 kts | 236° |
| 2026-05-06 22:28 | 50.90423 | -1.45660 | 7030 ft | 187 kts | 236° |
| 2026-05-06 22:28 | 50.89669 | -1.47304 | 6652 ft | 181 kts | 236° |
| 2026-05-06 22:28 | 50.88938 | -1.48898 | 6284 ft | 176 kts | 236° |
| 2026-05-06 22:28 | 50.88228 | -1.50446 | 5919 ft | 172 kts | 236° |
| 2026-05-06 22:29 | 50.87535 | -1.51953 | 5589 ft | 168 kts | 236° |
| 2026-05-06 22:29 | 50.86854 | -1.53432 | 5258 ft | 165 kts | 236° |
| 2026-05-06 22:29 | 50.86182 | -1.54897 | 4940 ft | 162 kts | 236° |
| 2026-05-06 22:29 | 50.85530 | -1.56312 | 4617 ft | 156 kts | 236° |
| 2026-05-06 22:30 | 50.84901 | -1.57678 | 4308 ft | 152 kts | 235° |
| 2026-05-06 22:30 | 50.84285 | -1.59015 | 4008 ft | 149 kts | 235° |
| 2026-05-06 22:30 | 50.83678 | -1.60337 | 3719 ft | 149 kts | 234° |
| 2026-05-06 22:30 | 50.83069 | -1.61657 | 3436 ft | 149 kts | 234° |
| 2026-05-06 22:31 | 50.82458 | -1.62980 | 3141 ft | 149 kts | 234° |
| 2026-05-06 22:31 | 50.81851 | -1.64297 | 2844 ft | 148 kts | 234° |
| 2026-05-06 22:31 | 50.81242 | -1.65623 | 2550 ft | 149 kts | 236° |
| 2026-05-06 22:31 | 50.80832 | -1.67113 | 2261 ft | 148 kts | 256° |
| 2026-05-06 22:32 | 50.80572 | -1.68697 | 1993 ft | 149 kts | 257° |
| 2026-05-06 22:32 | 50.80308 | -1.70290 | 1752 ft | 149 kts | 256° |
| 2026-05-06 22:32 | 50.80053 | -1.71865 | 1566 ft | 148 kts | 257° |
| 2026-05-06 22:32 | 50.79803 | -1.73457 | 1372 ft | 148 kts | 258° |
| 2026-05-06 22:33 | 50.79549 | -1.75020 | 1188 ft | 146 kts | 257° |
| 2026-05-06 22:33 | 50.79290 | -1.76570 | 998 ft | 145 kts | 257° |
| 2026-05-06 22:33 | 50.79030 | -1.78086 | 762 ft | 142 kts | 257° |
| 2026-05-06 22:33 | 50.78774 | -1.79579 | 515 ft | 139 kts | 256° |
| 2026-05-06 22:34 | 50.78535 | -1.81050 | 293 ft | 137 kts | 256° |
| 2026-05-06 22:34 | 50.78292 | -1.82505 | 116 ft | 136 kts | 256° |
| 2026-05-06 22:34 | 50.78067 | -1.83887 | 44 ft | 111 kts | 255° |
| 2026-05-06 22:34 | 50.77948 | -1.84609 | 46 ft | 31 kts | 256° |
| 2026-05-06 22:35 | 50.77909 | -1.84851 | 48 ft | 21 kts | 255° |
| 2026-05-06 22:35 | 50.77871 | -1.85076 | 49 ft | 22 kts | 256° |
| 2026-05-06 22:35 | 50.77831 | -1.85318 | 48 ft | 24 kts | 255° |
| 2026-05-06 22:35 | 50.77799 | -1.85507 | 47 ft | 9 kts | 255° |
| 2026-05-06 22:36 | 50.77783 | -1.85604 | 46 ft | 9 kts | 255° |
| 2026-05-06 22:36 | 50.77749 | -1.85687 | 46 ft | 9 kts | 213° |
| 2026-05-06 22:36 | 50.77713 | -1.85741 | 46 ft | 6 kts | 257° |
| 2026-05-06 22:36 | 50.77734 | -1.85763 | 46 ft | 4 kts | 8° |
| 2026-05-06 22:37 | 50.77771 | -1.85670 | 46 ft | 13 kts | 76° |
| 2026-05-06 22:37 | 50.77797 | -1.85517 | 44 ft | 15 kts | 75° |
| 2026-05-06 22:37 | 50.77824 | -1.85355 | 48 ft | 16 kts | 75° |
| 2026-05-06 22:37 | 50.77858 | -1.85149 | 46 ft | 22 kts | 75° |
| 2026-05-06 22:38 | 50.77897 | -1.84911 | 48 ft | 24 kts | 75° |
| 2026-05-06 22:38 | 50.77941 | -1.84644 | 44 ft | 26 kts | 76° |
| 2026-05-06 22:38 | 50.77992 | -1.84346 | 43 ft | 29 kts | 75° |
| 2026-05-06 22:38 | 50.78043 | -1.84028 | 42 ft | 30 kts | 75° |
| 2026-05-06 22:39 | 50.78094 | -1.83728 | 43 ft | 17 kts | 75° |
| 2026-05-06 22:39 | 50.78108 | -1.83617 | 44 ft | 9 kts | 97° |
| 2026-05-06 22:39 | 50.78071 | -1.83581 | 45 ft | 5 kts | 150° |
| 2026-05-06 22:39 | 50.78031 | -1.83554 | 46 ft | 6 kts | 163° |
| 2026-05-06 22:40 | 50.77992 | -1.83536 | 44 ft | 6 kts | 163° |
| 2026-05-06 22:40 | 50.77956 | -1.83516 | 45 ft | 5 kts | 157° |
| 2026-05-06 22:40 | 50.77911 | -1.83487 | 46 ft | 10 kts | 169° |
| 2026-05-06 22:40 | 50.77854 | -1.83472 | 46 ft | 5 kts | 155° |
| 2026-05-06 22:41 | 50.77843 | -1.83386 | 46 ft | 0 kts | 88° |